Washington, Mississippi
Current Conditions -  °F | °C
As of 10:15 AM on Sunday 23 Nov 2014 (Local Time) from KHEZ Reporting Station
Overcast Overcast  
Wind Chill: 64°   Ceiling: 2100
Heat Index: 64°   Visibility: 10mi
Dew Point: 61°   Wind: 20mph
Humidity: 88%   Direction: 200°SSW
Pressure: 29.61"   Gusts: 29mph
Location:  31.58°N, 91.3°W
Report Text: KHEZ 231615Z AUTO 20017G25KT 10SM BKN021 OVC027 18/16 A2961 RMK AO1
Loading
Personal Weather Stations






























Interactive Weather Map New forecast layout! Learn more

10-Day Weather Forecast

Advertisements
Track Severe Weather on mobile